Terminal Aerodrome Forecast
Issued by NWS

Home | Current Version | Previous Version | Text Only | Print | Product List | Glossary On
Versions: 1 2 3 4 5 6 7 8 9 10 11 12 13 14 15 16 17 18 19 20
940
FTUS46 KEKA 302348 CCB
TAFCEC
TAF COR
KCEC 302348Z 0100/0124 32012G20KT P6SM FEW010
     FM010300 36008KT P6SM SKC
     FM011100 02005KT 3SM BR FEW006
     FM011800 33010KT P6SM SKC=

USA.gov is the U.S. government's official web portal to all federal, state and local government web resources and services.